createdAt,value
2018-06-02T00:01:32.417Z,21.52
2018-06-02T00:03:59.898Z,21.49
2018-06-02T00:06:27.375Z,21.44
2018-06-02T00:08:54.846Z,21.47
2018-06-02T00:11:22.356Z,21.46
2018-06-02T00:13:49.814Z,21.39
2018-06-02T00:16:17.278Z,21.34
2018-06-02T00:18:44.803Z,21.31
2018-06-02T00:21:12.723Z,21.26
2018-06-02T00:23:40.208Z,21.27
2018-06-02T00:26:07.694Z,21.31
2018-06-02T00:28:35.180Z,21.47
2018-06-02T00:31:02.670Z,21.44
2018-06-02T00:33:30.176Z,21.53
2018-06-02T00:35:57.643Z,21.48
2018-06-02T00:38:25.123Z,21.37
2018-06-02T00:40:52.644Z,21.46
2018-06-02T00:43:20.105Z,21.50
2018-06-02T00:45:47.581Z,21.59
2018-06-02T00:48:15.063Z,21.56
2018-06-02T00:50:42.543Z,21.56
2018-06-02T00:53:10.014Z,21.38
2018-06-02T00:55:37.521Z,21.50
2018-06-02T00:58:04.963Z,21.54
2018-06-02T01:00:32.470Z,21.46
2018-06-02T01:02:59.941Z,21.40
2018-06-02T01:05:27.415Z,21.39
2018-06-02T01:07:55.125Z,21.30
2018-06-02T01:10:22.594Z,21.29
2018-06-02T01:12:50.061Z,21.17
2018-06-02T01:15:17.535Z,21.13
2018-06-02T01:17:45.010Z,21.29
2018-06-02T01:20:12.552Z,21.31
2018-06-02T01:22:40.045Z,21.27
2018-06-02T01:25:07.555Z,21.11
2018-06-02T01:27:35.026Z,21.07
2018-06-02T01:30:02.491Z,21.03
2018-06-02T01:32:29.997Z,21.04
2018-06-02T01:34:57.477Z,21.12
2018-06-02T01:37:24.963Z,21.12
2018-06-02T01:39:52.446Z,21.14
2018-06-02T01:42:19.975Z,21.13
2018-06-02T01:44:47.540Z,21.08
2018-06-02T01:47:15.021Z,21.06
2018-06-02T01:49:43.819Z,21.21
2018-06-02T01:52:11.327Z,21.24
2018-06-02T01:54:38.875Z,21.36
2018-06-02T01:57:06.416Z,21.28
2018-06-02T01:59:33.907Z,21.18
2018-06-02T02:02:01.379Z,21.20
2018-06-02T02:04:28.854Z,21.26
2018-06-02T02:06:56.371Z,21.17
2018-06-02T02:09:23.845Z,21.17
2018-06-02T02:11:51.290Z,21.22
2018-06-02T02:14:18.779Z,21.39
2018-06-02T02:16:46.348Z,21.31
2018-06-02T02:19:13.903Z,21.16
2018-06-02T02:21:41.365Z,21.14
2018-06-02T02:24:08.852Z,21.05
2018-06-02T02:26:36.325Z,21.27
2018-06-02T02:29:03.782Z,21.39
2018-06-02T02:31:31.234Z,21.27
2018-06-02T02:33:58.694Z,21.21
2018-06-02T02:36:26.224Z,21.16
2018-06-02T02:38:53.746Z,21.17
2018-06-02T02:41:21.273Z,21.20
2018-06-02T02:43:48.770Z,21.24
2018-06-02T02:46:16.254Z,21.27
2018-06-02T02:48:43.777Z,21.16
2018-06-02T02:51:11.241Z,21.12
2018-06-02T02:53:38.727Z,21.07
2018-06-02T02:56:06.202Z,21.23
2018-06-02T02:58:33.678Z,21.09
2018-06-02T03:01:01.217Z,21.05
2018-06-02T03:03:28.671Z,21.02
2018-06-02T03:05:56.146Z,20.92
2018-06-02T03:08:23.635Z,20.95
2018-06-02T03:10:51.491Z,20.90
2018-06-02T03:13:18.962Z,20.91
2018-06-02T03:15:46.454Z,20.98
2018-06-02T03:18:13.937Z,20.90
2018-06-02T03:20:41.391Z,20.87
2018-06-02T03:23:08.851Z,20.86
2018-06-02T03:25:36.325Z,20.97
2018-06-02T03:28:03.813Z,20.95
2018-06-02T03:30:31.267Z,20.88
2018-06-02T03:32:58.767Z,20.86
2018-06-02T03:35:26.231Z,20.86
2018-06-02T03:37:53.688Z,20.84
2018-06-02T03:40:21.196Z,20.97
2018-06-02T03:42:49.400Z,20.99
2018-06-02T03:45:16.890Z,21.05
2018-06-02T03:47:44.386Z,21.05
2018-06-02T03:50:11.850Z,21.22
2018-06-02T03:52:39.330Z,21.15
2018-06-02T03:55:06.799Z,21.28
2018-06-02T03:57:34.241Z,21.34
2018-06-02T04:00:01.713Z,21.22
2018-06-02T04:02:29.184Z,21.32
2018-06-02T04:04:56.676Z,21.46
2018-06-02T04:07:24.206Z,21.36
2018-06-02T04:09:51.700Z,21.41
2018-06-02T04:12:19.150Z,21.47
2018-06-02T04:14:47.214Z,21.48
2018-06-02T04:17:15.570Z,21.45
2018-06-02T04:19:43.040Z,21.58
2018-06-02T04:22:10.497Z,21.56
2018-06-02T04:24:37.990Z,21.61
2018-06-02T04:27:05.453Z,21.52
2018-06-02T04:29:32.941Z,21.59
2018-06-02T04:32:01.441Z,21.61
2018-06-02T04:34:28.906Z,21.64
2018-06-02T04:36:56.405Z,21.68
2018-06-02T04:39:23.854Z,21.58
2018-06-02T04:41:51.305Z,21.62
2018-06-02T04:44:18.781Z,21.77
2018-06-02T04:46:46.244Z,21.69
2018-06-02T04:49:13.682Z,21.61
2018-06-02T04:51:41.142Z,21.72
2018-06-02T04:54:08.659Z,21.87
2018-06-02T04:56:36.111Z,21.80
2018-06-02T04:59:03.674Z,21.77
2018-06-02T05:01:31.230Z,21.87
2018-06-02T05:03:58.690Z,21.95
2018-06-02T05:19:23.338Z,22.36
2018-06-02T05:21:50.845Z,22.48
2018-06-02T05:24:18.295Z,22.42
2018-06-02T05:26:45.795Z,22.53
2018-06-02T05:29:13.329Z,22.71
2018-06-02T05:31:40.766Z,22.73
2018-06-02T05:34:08.260Z,22.79
2018-06-02T05:36:35.734Z,22.54
2018-06-02T05:39:03.217Z,22.77
2018-06-02T05:41:30.674Z,22.91
2018-06-02T05:43:58.159Z,22.90
2018-06-02T05:46:26.028Z,23.08
2018-06-02T05:48:53.502Z,23.28
2018-06-02T05:51:20.972Z,23.31
2018-06-02T05:53:48.429Z,23.57
2018-06-02T05:56:15.886Z,23.57
2018-06-02T05:58:43.341Z,23.75
2018-06-02T06:01:11.784Z,23.89
2018-06-02T06:03:39.256Z,23.82
2018-06-02T06:06:06.717Z,23.79
2018-06-02T06:08:34.591Z,23.91
2018-06-02T06:11:02.179Z,23.84
2018-06-02T06:13:35.207Z,23.67
2018-06-02T06:16:02.705Z,23.69
2018-06-02T06:18:30.166Z,23.76
2018-06-02T06:20:57.653Z,23.65
2018-06-02T06:23:25.116Z,23.68
2018-06-02T06:25:53.286Z,23.62
2018-06-02T06:28:20.756Z,23.65
2018-06-02T06:30:48.250Z,23.78
2018-06-02T06:33:15.755Z,23.73
2018-06-02T06:35:43.179Z,23.69
2018-06-02T06:38:10.646Z,23.54
2018-06-02T06:40:38.108Z,23.50
2018-06-02T06:43:05.573Z,23.77
2018-06-02T06:45:33.045Z,23.85
2018-06-02T06:48:00.499Z,23.71
2018-06-02T06:50:27.975Z,23.89
2018-06-02T06:52:55.458Z,23.95
2018-06-02T06:55:22.938Z,24.08
2018-06-02T06:57:50.378Z,24.15
2018-06-02T07:00:17.839Z,24.38
2018-06-02T07:02:45.293Z,24.34
2018-06-02T07:05:12.748Z,24.62
2018-06-02T07:07:40.225Z,24.40
2018-06-02T07:10:07.692Z,24.56
2018-06-02T07:12:35.163Z,24.48
2018-06-02T07:15:02.630Z,24.70
2018-06-02T07:17:30.126Z,24.94
2018-06-02T07:19:57.573Z,24.86
2018-06-02T07:22:25.061Z,24.70
2018-06-02T07:24:52.548Z,24.62
2018-06-02T07:27:20.010Z,24.71
2018-06-02T07:29:47.457Z,25.07
2018-06-02T07:32:14.900Z,24.89
2018-06-02T07:34:42.390Z,24.97
2018-06-02T07:37:09.850Z,25.30
2018-06-02T07:39:37.299Z,25.40
2018-06-02T07:42:04.785Z,25.59
2018-06-02T07:44:32.225Z,25.64
2018-06-02T07:46:59.687Z,25.51
2018-06-02T07:49:27.152Z,25.59
2018-06-02T07:51:54.619Z,25.22
2018-06-02T07:54:22.076Z,25.21
2018-06-02T07:56:49.546Z,25.54
2018-06-02T07:59:17.027Z,25.64
2018-06-02T08:01:44.479Z,25.54
2018-06-02T08:04:11.974Z,25.43
2018-06-02T08:06:39.416Z,25.32
2018-06-02T08:09:06.889Z,25.37
2018-06-02T08:11:34.368Z,25.43
2018-06-02T08:14:02.057Z,25.43
2018-06-02T08:16:29.571Z,25.59
2018-06-02T08:18:57.350Z,25.57
2018-06-02T08:21:24.819Z,25.60
2018-06-02T08:23:52.286Z,25.76
2018-06-02T08:26:19.817Z,25.52
2018-06-02T08:28:47.914Z,25.55
2018-06-02T08:31:16.318Z,25.34
2018-06-02T08:33:43.982Z,24.90
2018-06-02T08:36:11.512Z,24.75
2018-06-02T08:38:38.962Z,24.77
2018-06-02T08:41:06.427Z,24.68
2018-06-02T08:43:33.895Z,24.52
2018-06-02T08:46:01.387Z,24.87
2018-06-02T08:48:28.909Z,25.00
2018-06-02T08:50:57.677Z,25.19
2018-06-02T08:53:26.249Z,25.11
2018-06-02T08:55:53.782Z,24.68
2018-06-02T08:58:21.276Z,24.32
2018-06-02T09:00:48.887Z,24.53
2018-06-02T09:03:16.359Z,24.75
2018-06-02T09:05:43.824Z,24.99
2018-06-02T09:08:11.358Z,25.13
2018-06-02T09:10:38.853Z,24.71
2018-06-02T09:13:06.306Z,24.80
2018-06-02T09:15:33.820Z,24.71
2018-06-02T09:18:01.281Z,24.92
2018-06-02T09:20:28.755Z,25.11
2018-06-02T09:22:56.780Z,25.20
2018-06-02T09:25:24.264Z,25.04
2018-06-02T09:27:51.744Z,25.00
2018-06-02T09:30:19.203Z,25.35
2018-06-02T09:32:47.540Z,25.55
2018-06-02T09:35:15.055Z,25.69
2018-06-02T09:37:42.468Z,25.72
2018-06-02T09:40:09.955Z,25.82
2018-06-02T09:42:37.413Z,25.99
2018-06-02T09:45:04.889Z,26.34
2018-06-02T09:47:32.405Z,26.20
2018-06-02T09:49:59.870Z,26.12
2018-06-02T09:52:27.406Z,26.14
2018-06-02T09:54:54.875Z,26.09
2018-06-02T09:57:22.351Z,25.92
2018-06-02T09:59:49.844Z,26.09
2018-06-02T10:02:17.320Z,26.40
2018-06-02T10:04:44.802Z,26.43
2018-06-02T10:07:12.288Z,26.51
2018-06-02T10:09:39.745Z,26.48
2018-06-02T10:12:07.262Z,26.37
2018-06-02T10:14:34.740Z,26.00
2018-06-02T10:17:02.196Z,25.60
2018-06-02T10:19:29.659Z,25.97
2018-06-02T10:21:57.147Z,26.05
2018-06-02T10:24:24.604Z,26.07
2018-06-02T10:26:52.056Z,26.02
2018-06-02T10:29:19.544Z,26.40
2018-06-02T10:31:47.024Z,26.14
2018-06-02T10:34:14.477Z,26.00
2018-06-02T10:36:41.946Z,26.31
2018-06-02T10:39:09.427Z,26.30
2018-06-02T10:41:36.888Z,26.16
2018-06-02T10:44:04.394Z,25.56
2018-06-02T10:46:31.859Z,25.67
2018-06-02T10:48:59.353Z,25.48
2018-06-02T10:51:26.815Z,25.47
2018-06-02T10:53:54.258Z,25.70
2018-06-02T10:56:21.790Z,25.30
2018-06-02T10:58:49.258Z,25.31
2018-06-02T11:01:16.699Z,25.51
2018-06-02T11:03:44.164Z,25.78
2018-06-02T11:06:11.648Z,26.37
2018-06-02T11:08:39.121Z,26.20
2018-06-02T11:11:06.587Z,26.55
2018-06-02T11:13:34.049Z,26.52
2018-06-02T11:16:01.505Z,26.54
2018-06-02T11:18:28.968Z,27.08
2018-06-02T11:20:56.429Z,27.38
2018-06-02T11:23:23.895Z,27.29
2018-06-02T11:25:51.383Z,26.39
2018-06-02T11:28:18.842Z,26.22
2018-06-02T11:30:46.321Z,26.02
2018-06-02T11:33:13.765Z,26.51
2018-06-02T11:35:41.235Z,26.55
2018-06-02T11:38:08.701Z,26.56
2018-06-02T11:40:36.146Z,26.57
2018-06-02T11:43:03.653Z,26.25
2018-06-02T11:45:31.107Z,26.49
2018-06-02T11:47:58.566Z,26.82
2018-06-02T11:50:26.041Z,26.75
2018-06-02T11:52:53.492Z,26.62
2018-06-02T11:55:20.938Z,26.58
2018-06-02T11:57:48.431Z,26.69
2018-06-02T12:00:15.896Z,26.70
2018-06-02T12:02:43.337Z,26.57
2018-06-02T12:05:10.807Z,26.88
2018-06-02T12:07:38.255Z,26.84
2018-06-02T12:10:05.751Z,27.30
2018-06-02T12:12:33.701Z,27.73
2018-06-02T12:15:02.635Z,27.25
2018-06-02T12:17:30.106Z,27.31
2018-06-02T12:19:57.581Z,27.20
2018-06-02T12:22:25.051Z,27.03
2018-06-02T12:24:52.525Z,26.69
2018-06-02T12:27:20.016Z,26.59
2018-06-02T12:29:47.499Z,26.67
2018-06-02T12:32:14.968Z,27.03
2018-06-02T12:34:42.509Z,26.44
2018-06-02T12:37:09.937Z,26.19
2018-06-02T12:39:37.435Z,26.74
2018-06-02T12:42:04.921Z,26.16
2018-06-02T12:44:32.389Z,25.94
2018-06-02T12:46:59.895Z,26.68
2018-06-02T12:49:27.387Z,26.84
2018-06-02T12:51:54.880Z,26.58
2018-06-02T12:54:22.408Z,26.29
2018-06-02T12:56:49.894Z,26.28
2018-06-02T12:59:17.382Z,26.23
2018-06-02T13:01:44.879Z,26.49
2018-06-02T13:04:12.375Z,26.04
2018-06-02T13:06:39.895Z,25.70
2018-06-02T13:09:07.394Z,25.55
2018-06-02T13:11:34.885Z,25.40
2018-06-02T13:14:02.386Z,25.73
2018-06-02T13:16:29.865Z,25.66
2018-06-02T13:18:57.363Z,25.55
2018-06-02T13:21:24.845Z,25.83
2018-06-02T13:23:52.430Z,26.06
2018-06-02T13:26:19.929Z,25.44
2018-06-02T13:28:47.432Z,25.32
2018-06-02T13:31:14.902Z,25.17
2018-06-02T13:33:42.417Z,25.40
2018-06-02T13:36:09.912Z,25.69
2018-06-02T13:38:37.439Z,25.72
2018-06-02T13:41:04.967Z,25.79
2018-06-02T13:43:32.456Z,25.42
2018-06-02T13:45:59.943Z,24.98
2018-06-02T13:48:27.426Z,24.86
2018-06-02T13:50:54.967Z,25.00
2018-06-02T13:53:22.458Z,24.97
2018-06-02T13:55:49.948Z,24.95
2018-06-02T13:58:17.441Z,25.26
2018-06-02T14:00:44.944Z,25.31
2018-06-02T14:03:12.429Z,25.41
2018-06-02T14:05:39.926Z,25.27
2018-06-02T14:08:07.406Z,25.19
2018-06-02T14:10:34.895Z,25.43
2018-06-02T14:13:02.383Z,25.77
2018-06-02T14:15:29.896Z,25.78
2018-06-02T14:17:57.384Z,25.54
2018-06-02T14:20:24.879Z,25.55
2018-06-02T14:22:52.372Z,25.88
2018-06-02T14:25:19.893Z,26.28
2018-06-02T14:27:47.420Z,26.20
2018-06-02T14:30:14.895Z,26.42
2018-06-02T14:32:42.379Z,26.33
2018-06-02T14:35:09.892Z,26.48
2018-06-02T14:37:37.400Z,26.67
2018-06-02T14:40:05.455Z,26.82
2018-06-02T14:42:32.961Z,27.85
2018-06-02T14:45:00.533Z,28.74
2018-06-02T14:47:28.003Z,29.92
2018-06-02T14:49:55.498Z,29.87
2018-06-02T14:52:22.985Z,31.09
2018-06-02T14:54:50.483Z,31.93
2018-06-02T14:57:18.003Z,31.22
2018-06-02T14:59:45.497Z,30.48
2018-06-02T15:02:12.975Z,30.40
2018-06-02T15:04:40.514Z,31.60
2018-06-02T15:07:08.008Z,33.95
2018-06-02T15:09:35.520Z,35.24
2018-06-02T15:12:03.021Z,33.35
2018-06-02T15:14:30.554Z,31.87
2018-06-02T15:16:58.121Z,32.65
2018-06-02T15:19:25.602Z,34.23
2018-06-02T15:21:53.092Z,33.29
2018-06-02T15:24:21.856Z,31.39
2018-06-02T15:26:49.378Z,31.48
2018-06-02T15:29:16.891Z,33.04
2018-06-02T15:31:44.391Z,32.78
2018-06-02T15:34:11.898Z,33.28
2018-06-02T15:36:39.456Z,33.41
2018-06-02T15:39:06.957Z,34.13
2018-06-02T15:41:34.441Z,33.85
2018-06-02T15:44:01.911Z,33.94
2018-06-02T15:46:29.379Z,34.00
2018-06-02T15:48:56.854Z,34.22
2018-06-02T15:51:24.319Z,35.02
2018-06-02T15:53:51.814Z,36.12
2018-06-02T15:56:19.284Z,35.78
2018-06-02T15:58:46.771Z,35.48
2018-06-02T16:01:14.265Z,34.54
2018-06-02T16:03:41.745Z,34.31
2018-06-02T16:06:09.239Z,35.58
2018-06-02T16:08:36.710Z,35.76
2018-06-02T16:11:04.775Z,35.90
2018-06-02T16:26:29.370Z,32.57
2018-06-02T16:28:57.423Z,30.82
2018-06-02T16:31:25.068Z,30.08
2018-06-02T16:33:52.816Z,29.10
2018-06-02T16:36:20.368Z,28.63
2018-06-02T16:38:47.865Z,28.56
2018-06-02T16:41:15.410Z,28.42
2018-06-02T16:43:42.914Z,28.84
2018-06-02T16:46:10.446Z,28.53
2018-06-02T16:48:38.084Z,27.85
2018-06-02T16:51:05.570Z,27.24
2018-06-02T16:53:34.687Z,27.05
2018-06-02T16:56:02.246Z,26.78
2018-06-02T16:58:29.748Z,26.67
2018-06-02T17:00:57.226Z,26.30
2018-06-02T17:03:24.740Z,26.12
2018-06-02T17:05:52.236Z,25.97
2018-06-02T17:08:21.029Z,25.74
2018-06-02T17:10:48.555Z,25.61
2018-06-02T17:13:16.066Z,25.30
2018-06-02T17:15:43.579Z,25.05
2018-06-02T17:18:11.088Z,24.92
2018-06-02T17:20:38.605Z,24.85
2018-06-02T17:23:06.092Z,24.72
2018-06-02T17:25:33.630Z,24.80
2018-06-02T17:28:01.253Z,24.72
2018-06-02T17:30:28.746Z,24.61
2018-06-02T17:32:56.267Z,24.48
2018-06-02T17:35:23.829Z,24.37
2018-06-02T17:37:51.367Z,24.27
2018-06-02T17:40:18.958Z,24.27
2018-06-02T17:42:46.513Z,24.11
2018-06-02T17:45:14.076Z,24.16
2018-06-02T17:47:42.492Z,24.15
2018-06-02T17:50:09.959Z,24.11
2018-06-02T17:52:37.430Z,24.13
2018-06-02T17:55:04.954Z,24.10
2018-06-02T17:57:32.424Z,23.98
2018-06-02T17:59:59.909Z,24.01
2018-06-02T18:02:27.447Z,23.81
2018-06-02T18:04:54.998Z,23.92
2018-06-02T18:07:22.478Z,23.71
2018-06-02T18:09:50.030Z,23.65
2018-06-02T18:12:17.589Z,23.63
2018-06-02T18:14:45.060Z,23.56
2018-06-02T18:17:12.566Z,23.62
2018-06-02T18:19:40.104Z,23.71
2018-06-02T18:22:07.596Z,23.56
2018-06-02T18:24:35.100Z,23.47
2018-06-02T18:27:02.580Z,23.52
2018-06-02T18:29:30.059Z,23.45
2018-06-02T18:31:57.578Z,23.43
2018-06-02T18:34:25.110Z,23.37
2018-06-02T18:36:52.590Z,23.37
2018-06-02T18:39:20.070Z,23.27
2018-06-02T18:41:47.598Z,23.25
2018-06-02T18:44:15.285Z,23.16
2018-06-02T18:46:42.779Z,23.09
2018-06-02T18:49:12.083Z,23.01
2018-06-02T18:51:40.109Z,22.87
2018-06-02T18:54:08.774Z,22.83
2018-06-02T18:56:37.484Z,22.82
2018-06-02T19:12:03.521Z,22.30
2018-06-02T19:14:31.037Z,22.36
2018-06-02T19:16:58.548Z,22.31
2018-06-02T19:19:26.103Z,22.31
2018-06-02T19:21:53.575Z,22.33
2018-06-02T19:24:21.071Z,22.33
2018-06-02T19:26:48.555Z,22.32
2018-06-02T19:29:16.037Z,22.28
2018-06-02T19:31:43.521Z,22.30
2018-06-02T19:34:11.048Z,22.31
2018-06-02T19:36:38.547Z,22.32
2018-06-02T19:39:06.112Z,22.34
2018-06-02T19:41:33.619Z,22.27
2018-06-02T19:44:01.083Z,22.33
2018-06-02T19:46:28.576Z,22.28
2018-06-02T19:48:56.052Z,22.21
2018-06-02T19:51:23.557Z,22.19
2018-06-02T19:53:51.042Z,22.21
2018-06-02T19:56:18.550Z,22.32
2018-06-02T19:58:46.118Z,22.32
2018-06-02T20:01:13.686Z,22.31
2018-06-02T20:03:41.219Z,22.27
2018-06-02T20:06:08.852Z,22.25
2018-06-02T20:08:36.367Z,22.28
2018-06-02T20:11:03.878Z,22.27
2018-06-02T20:13:32.167Z,22.27
2018-06-02T20:15:59.663Z,22.27
2018-06-02T20:18:27.159Z,22.34
2018-06-02T20:20:54.714Z,22.33
2018-06-02T20:23:22.182Z,22.31
2018-06-02T20:25:49.663Z,22.33
2018-06-02T20:28:17.157Z,22.37
2018-06-02T20:30:44.679Z,22.35
2018-06-02T20:33:12.154Z,22.34
2018-06-02T20:35:39.654Z,22.32
2018-06-02T20:38:07.154Z,22.29
2018-06-02T20:40:34.668Z,22.25
2018-06-02T20:43:02.143Z,22.22
2018-06-02T20:45:29.706Z,22.31
2018-06-02T20:47:57.231Z,22.33
2018-06-02T20:50:24.728Z,22.37
2018-06-02T20:52:52.200Z,22.55
2018-06-02T20:55:19.728Z,22.63
2018-06-02T20:57:47.216Z,22.67
2018-06-02T21:00:14.728Z,22.64
2018-06-02T21:02:42.220Z,22.65
2018-06-02T21:05:09.780Z,22.77
2018-06-02T21:07:37.269Z,22.78
2018-06-02T21:10:04.780Z,22.96
2018-06-02T21:12:32.307Z,22.92
2018-06-02T21:14:59.778Z,22.86
2018-06-02T21:17:28.935Z,22.76
2018-06-02T21:19:56.464Z,22.83
2018-06-02T21:22:23.975Z,22.86
2018-06-02T21:24:51.492Z,22.83
2018-06-02T21:27:19.014Z,22.82
2018-06-02T21:29:46.621Z,22.80
2018-06-02T21:32:14.110Z,22.81
2018-06-02T21:34:41.649Z,22.81
2018-06-02T21:37:09.168Z,22.77
2018-06-02T21:39:36.725Z,22.74
2018-06-02T21:42:04.220Z,22.60
2018-06-02T21:44:31.873Z,22.49
2018-06-02T21:46:59.510Z,22.44
2018-06-02T21:49:27.076Z,22.40
2018-06-02T21:51:54.565Z,22.37
2018-06-02T21:54:22.091Z,22.39
2018-06-02T21:56:49.638Z,22.27
2018-06-02T21:59:17.145Z,22.19
2018-06-02T22:01:44.764Z,22.14
2018-06-02T22:04:12.281Z,22.27
2018-06-02T22:06:39.791Z,22.47
2018-06-02T22:09:07.308Z,22.50
2018-06-02T22:11:34.796Z,22.56
2018-06-02T22:14:03.578Z,22.57
2018-06-02T22:16:31.396Z,22.58
2018-06-02T22:18:58.943Z,22.69
2018-06-02T22:21:26.440Z,22.65
2018-06-02T22:23:54.099Z,22.69
2018-06-02T22:26:21.599Z,22.60
2018-06-02T22:28:54.629Z,22.66
2018-06-02T22:31:22.174Z,22.60
2018-06-02T22:33:49.665Z,22.60
2018-06-02T22:36:17.208Z,22.52
2018-06-02T22:38:44.736Z,22.49
2018-06-02T22:41:12.215Z,22.45
2018-06-02T22:43:40.587Z,22.41
2018-06-02T22:46:08.072Z,22.32
2018-06-02T22:48:35.582Z,22.30
2018-06-02T22:51:03.054Z,22.10
2018-06-02T22:53:30.667Z,22.08
2018-06-02T22:55:58.257Z,22.04
2018-06-02T22:58:25.778Z,22.11
2018-06-02T23:00:53.340Z,22.22
2018-06-02T23:03:21.104Z,22.13
2018-06-02T23:05:49.354Z,22.18
2018-06-02T23:08:17.060Z,22.31
2018-06-02T23:10:44.643Z,22.40
2018-06-02T23:13:12.785Z,22.50
2018-06-02T23:18:12.627Z,22.47
2018-06-02T23:20:40.261Z,22.38
2018-06-02T23:23:08.361Z,22.37
2018-06-02T23:25:35.973Z,22.26
2018-06-02T23:28:05.926Z,22.24
2018-06-02T23:30:33.718Z,22.28
2018-06-02T23:33:01.269Z,22.24
2018-06-02T23:35:29.091Z,22.26
2018-06-02T23:37:56.582Z,22.33
2018-06-02T23:40:24.311Z,22.20
2018-06-02T23:42:51.820Z,22.17
2018-06-02T23:45:19.272Z,22.00
2018-06-02T23:47:46.760Z,22.04
2018-06-02T23:50:14.258Z,22.01
2018-06-02T23:52:41.734Z,22.13
2018-06-02T23:55:09.250Z,22.02
2018-06-02T23:57:36.750Z,22.01
